Sansui, China
Current Conditions -  °F | °C
As of 10:00 PM on Friday 19 Dec 2014 (Local Time) from ZUGY Reporting Station
Haze Haze  
Wind Chill: 32°   Ceiling: Unl
Heat Index: 32°   Visibility: 2.1mi
Dew Point: 32°   Wind: 2mph
Humidity: 100%   Direction: 20°NNE
Pressure: 30.24"   Gusts: NA
Location:  26.97°N, 108.67°E
Report Text: ZUGY 191400Z 02001MPS 3500 BR NSC 00/M00 Q1024 BECMG TL16002000
Loading
Personal Weather Stations






























Interactive Weather Map New forecast layout! Learn more

10-Day Weather Forecast

Advertisements
Track Severe Weather on mobile